Station: Cape Borda

  Atmospheric Gas Attenuation - ITU Rec 676-11   --------------- db/100km ---------------
Date Time Temp RH % AH g/m3 Dew Point Wind Direction Speed kph Gust kph Barometer mB Rainfall Since 9am 24GHz 47GHz 76GHz 122GHz 134GHz 241GHz
17 01:20 10.9 96 9.55 10.3 19 22 1020.9 0 21.8 28.7 45.7 120.1 116.2 400.2
17 01:10 10.9 96 9.55 10.3 19 22 1021 0 21.8 28.7 45.7 120.1 116.2 400.2
17 01:00 10.8 95 9.39 10 19 24 1021 0 21.4 28.4 45.1 118.4 114.1 392.8
17 00:50 10.6 94 9.18 9.7 17 19 1021 0 21.0 28.1 44.3 116.3 111.4 383.3
17 00:40 10.7 93 9.14 9.6 19 24 1021.1 0 20.9 28.0 44.1 115.7 110.7 380.9
17 00:30 10.5 93 9.02 9.4 17 22 1021.3 0 20.6 27.9 43.7 114.6 109.3 376.0
17 00:20 10.5 93 9.02 9.4 17 20 1021.4 0 20.6 27.9 43.7 114.6 109.3 376.0
17 00:10 10.5 92 8.92 9.3 17 20 1021.5 0 20.4 27.7 43.2 113.5 107.9 371.1
17 00:00 10.5 92 8.92 9.3 17 24 1021.7 0 20.4 27.8 43.3 113.5 107.9 371.2
16 23:50 10.5 92 8.92 9.3 19 20 1021.6 0 20.4 27.8 43.2 113.5 107.9 371.1
16 23:40 10.6 91 8.88 9.2 17 20 1021.6 0 20.3 27.6 43.0 112.9 107.2 368.7
16 23:30 10.8 92 9.1 9.6 19 24 1021.5 0 20.8 28.0 43.8 115.1 110.0 378.5
16 23:20 10.8 92 9.1 9.6 19 20 1021.6 0 20.8 28.0 43.8 115.1 110.0 378.6
16 23:10 10.8 91 9 9.4 17 20 1021.7 0 20.6 27.8 43.4 114.0 108.6 373.7
16 23:00 10.9 91 9.05 9.5 19 24 1021.7 0 20.7 27.9 43.6 114.4 109.2 375.6
16 22:50 10.9 91 9.05 9.5 20 22 1021.9 0 20.7 27.9 43.6 114.4 109.2 375.7
16 22:40 10.9 91 9.05 9.5 20 22 1021.9 0 20.7 27.9 43.6 114.4 109.2 375.7
16 22:30 11 90 9.01 9.4 17 24 1022.1 0 20.6 27.8 43.4 113.8 108.5 373.3
16 22:20 11 89 8.91 9.3 17 20 1022.1 0 20.4 27.6 43.0 112.7 107.1 368.4
16 22:10 10.9 89 8.85 9.2 17 22 1022.1 0 20.3 27.5 42.8 112.2 106.4 366.0
16 22:00 11 88 8.81 9.1 19 24 1022.1 0 20.2 27.4 42.5 111.6 105.7 363.5
16 21:50 10.9 88 8.75 9 19 20 1022.1 0 20.0 27.4 42.3 111.0 105.0 361.1
16 21:40 10.5 88 8.54 8.6 15 15 1022.3 0 19.6 27.1 41.7 109.3 102.6 352.8
16 21:30 11 88 8.81 9.1 17 22 1022.4 0 20.2 27.4 42.5 111.6 105.7 363.6
16 21:20 11.1 89 8.97 9.4 17 20 1022.5 0 20.5 27.7 43.2 113.3 107.8 371.0
16 21:10 10.9 90 8.95 9.3 15 19 1022.7 0 20.5 27.7 43.2 113.4 107.8 371.0
16 21:00 10.8 93 9.19 9.7 13 20 1022.9 0 21.0 28.2 44.3 116.3 111.4 383.4
16 20:50 10.5 93 9.02 9.4 13 15 1022.6 0 20.6 28.0 43.7 114.7 109.4 376.4
16 20:40 10.5 93 9.02 9.4 15 17 1022.5 0 20.6 28.0 43.7 114.7 109.4 376.3
16 20:30 10.5 92 8.92 9.3 13 15 1022.6 0 20.4 27.8 43.3 113.6 108.0 371.4
16 20:20 11 91 9.11 9.6 13 13 1022.7 0 20.8 28.0 43.8 115.0 109.9 378.4
16 20:10 11 89 8.91 9.3 11 13 1022.9 0 20.4 27.6 43.0 112.8 107.2 368.7
16 20:00 11.4 90 9.24 9.8 9 13 1023.1 0 21.1 28.1 44.2 116.0 111.2 383.0
16 19:50 11.4 90 9.24 9.8 11 13 1022.9 0 21.1 28.1 44.2 116.0 111.2 382.9
16 19:40 11.2 89 9.02 9.5 11 13 1022.8 0 20.6 27.7 43.3 113.7 108.4 373.1
16 19:30 11.4 89 9.14 9.7 11 13 1022.9 0 20.9 27.9 43.7 114.8 109.8 378.0
16 19:20 11.6 88 9.15 9.7 11 13 1022.9 0 20.9 27.8 43.7 114.6 109.7 377.5
16 19:10 11.6 88 9.15 9.7 7 9 1022.9 0 20.9 27.8 43.7 114.6 109.7 377.5
16 19:00 11.8 88 9.26 9.9 9 15 1022.9 0 21.1 28.0 44.0 115.6 110.9 381.9
16 18:50 11.7 88 9.21 9.8 9 11 1022.9 0 21.0 27.9 43.9 115.2 110.4 380.0
16 18:40 11.6 87 9.04 9.5 9 11 1022.8 0 20.6 27.7 43.2 113.4 108.1 372.1
16 18:30 11.8 87 9.16 9.7 11 15 1022.6 0 20.9 27.8 43.6 114.4 109.5 376.9
16 18:20 11.8 87 9.16 9.7 11 13 1022.5 0 20.9 27.8 43.6 114.4 109.5 376.9
16 18:10 11.5 86 8.88 9.2 11 13 1022.4 0 20.3 27.4 42.6 111.7 106.0 364.7
16 18:00 11.7 85 8.89 9.3 11 15 1022.6 0 20.3 27.4 42.5 111.5 105.9 364.3
16 17:50 12.1 83 8.9 9.3 11 11 1022.5 0 20.3 27.3 42.3 111.1 105.5 362.9
16 17:40 12.6 81 8.96 9.4 9 9 1022.8 0 20.4 27.2 42.3 111.0 105.6 363.5
16 17:30 12.8 80 8.96 9.4 6 9 1023 0 20.4 27.2 42.2 110.8 105.4 362.6
16 17:20 13 79 8.96 9.4 7 7 1023 0 20.4 27.1 42.1 110.5 105.1 361.7
16 17:10 13.4 78 9.07 9.6 6 6 1023.1 0 20.6 27.2 42.4 111.2 106.1 365.1
16 17:00 13.3 77 8.9 9.4 6 9 1023.1 0 20.2 26.9 41.7 109.4 103.9 357.5
16 16:50 13.5 77 9.01 9.6 9 11 1023 0 20.5 27.0 42.1 110.3 105.1 361.8
16 16:40 13.3 78 9.01 9.5 6 7 1023.1 0 20.5 27.1 42.2 110.6 105.4 362.7
16 16:30 13.5 78 9.12 9.7 7 11 1023.3 0 20.7 27.2 42.5 111.6 106.6 367.1
16 16:20 13.5 77 9.01 9.6 6 7 1023.2 0 20.5 27.0 42.1 110.4 105.1 361.8
16 16:10 13.4 77 8.95 9.5 7 9 1023.1 0 20.3 27.0 41.9 109.8 104.4 359.4
16 16:00 13.5 76 8.89 9.4 9 15 1023 0 20.2 26.8 41.6 109.0 103.5 356.1
16 15:50 14 73 8.81 9.2 9 13 1023 0 20.0 26.5 41.0 107.5 101.7 350.1
16 15:40 14.3 74 9.09 9.7 9 11 1022.9 0 20.6 26.9 42.0 110.1 105.1 361.8
16 15:30 14.3 74 9.09 9.7 9 13 1023.1 0 20.6 26.9 42.0 110.1 105.1 361.9
16 15:20 14.4 73 9.02 9.6 9 11 1023.1 0 20.4 26.8 41.6 109.2 104.0 358.2
16 15:10 14.4 72 8.9 9.4 9 9 1023.2 0 20.2 26.6 41.1 107.9 102.4 352.6
16 15:00 14.5 73 9.08 9.7 9 13 1023.5 0 20.6 26.9 41.8 109.8 104.7 360.6
16 14:50 14.6 72 9.01 9.6 13 15 1023.4 0 20.4 26.7 41.5 108.9 103.6 356.9
16 14:40 14.3 73 8.97 9.5 11 13 1023.4 0 20.3 26.7 41.5 108.8 103.5 356.4
16 14:30 14.2 73 8.91 9.4 13 17 1023.5 0 20.2 26.7 41.3 108.3 102.9 354.0
16 14:20 14.2 72 8.79 9.2 11 13 1023.4 0 20.0 26.5 40.8 107.0 101.2 348.4
16 14:10 14.6 71 8.88 9.4 13 15 1023.4 0 20.1 26.5 41.0 107.5 101.9 350.8
16 14:00 14.4 71 8.78 9.2 15 17 1023.4 0 19.9 26.4 40.7 106.6 100.9 347.0
16 13:50 14.5 74 9.2 9.9 15 17 1023.4 0 20.8 27.1 42.3 111.1 106.3 366.2
16 13:40 14.6 73 9.14 9.8 15 17 1023.4 0 20.7 26.9 42.0 110.3 105.4 362.9
16 13:30 14.8 74 9.37 10.2 15 20 1023.5 0 21.2 27.2 42.9 112.5 108.2 372.9
16 13:20 14.1 74 8.98 9.5 15 17 1023.5 0 20.4 26.8 41.6 109.2 103.9 357.8
16 13:10 14.3 75 9.21 9.9 17 19 1023.5 0 20.9 27.1 42.5 111.5 106.8 367.7
16 13:00 14.5 73 9.08 9.7 15 19 1023.6 0 20.6 26.9 41.8 109.8 104.7 360.7
16 12:50 14.4 74 9.15 9.8 13 17 1023.8 0 20.7 27.0 42.2 110.7 105.8 364.5
16 12:40 14.5 75 9.33 10.1 15 17 1023.9 0 21.1 27.3 42.9 112.5 108.1 372.5
16 12:30 14.3 77 9.46 10.3 17 20 1024 0 21.4 27.6 43.5 114.3 110.2 379.7
16 12:20 14.5 76 9.45 10.3 15 17 1024.2 0 21.4 27.5 43.4 113.9 109.8 378.3
16 12:10 14.2 75 9.16 9.8 17 19 1024.3 0 20.8 27.1 42.4 111.1 106.3 366.0
16 12:00 14.4 73 9.02 9.6 15 20 1024.7 0 20.4 26.8 41.7 109.4 104.2 358.6
16 11:50 14.3 74 9.09 9.7 17 19 1024.7 0 20.6 27.0 42.0 110.3 105.2 362.4
16 11:40 14.3 71 8.72 9.1 15 20 1024.9 0 19.8 26.4 40.6 106.3 100.3 345.1
16 11:30 14.3 71 8.72 9.1 13 19 1024.9 0 19.8 26.4 40.6 106.3 100.3 345.1
16 11:20 14.7 70 8.81 9.3 9 13 1025 0 20.0 26.4 40.7 106.7 101.0 347.6
16 11:10 14.2 70 8.55 8.8 17 19 1025 0 19.5 26.1 39.9 104.6 98.2 337.7
16 11:00 14 70 8.44 8.6 17 24 1025 0 19.2 26.0 39.6 103.7 97.0 333.4
16 10:50 13.8 71 8.46 8.6 19 22 1024.9 0 19.3 26.1 39.8 104.2 97.5 335.2
16 10:40 13.7 73 8.64 9 17 20 1025 0 19.7 26.4 40.5 106.3 100.0 344.0
16 10:30 13.6 74 8.71 9.1 22 30 1024.9 0 19.8 26.6 40.9 107.1 101.1 347.7
16 10:20 13.3 74 8.55 8.8 24 28 1024.9 0 19.5 26.4 40.4 105.8 99.3 341.5
16 10:10 13.1 75 8.56 8.8 22 24 1024.9 0 19.5 26.5 40.5 106.2 99.7 342.9
16 10:00 12.9 76 8.57 8.8 22 30 1024.8 0 19.6 26.5 40.7 106.5 100.1 344.2
16 09:50 13 76 8.62 8.9 20 24 1024.8 0 19.7 26.6 40.8 107.0 100.6 346.1
16 09:40 12.6 76 8.41 8.5 24 30 1024.7 0 19.2 26.4 40.1 105.2 98.3 337.9
16 09:30 12.3 77 8.36 8.4 22 28 1024.7 0 19.1 26.4 40.1 105.1 98.0 336.9
16 09:20 12.2 78 8.42 8.5 22 24 1024.6 0 19.3 26.5 40.4 105.8 99.0 340.1
16 09:10 11.9 79 8.37 8.4 20 24 1024.5 0 19.2 26.5 40.3 105.7 98.7 339.0
16 09:00 11.6 80 8.32 8.3 20 28 1024.6 0 19.1 26.5 40.3 105.5 98.4 338.0
16 08:50 11.4 80 8.21 8.1 22 28 1024.4 0 18.9 26.4 39.9 104.6 97.1 333.5

Last Refresh: 17-Jul-2020 01:33:43

Most of the information presented on this site is sourced from the Bureau of Meteorology.  Copyright in all material sourced from the Bureau of Meteorology resides with the Commonwealth of Australia.